createdAt,value
2018-02-08T05:13:31.023Z,1009.10
2018-02-08T05:14:31.059Z,1009.06
2018-02-08T05:15:31.095Z,1009.10
2018-02-08T05:16:31.133Z,1009.10
2018-02-08T05:17:31.172Z,1009.10
2018-02-08T05:18:31.212Z,1009.16
2018-02-08T05:19:31.252Z,1009.15
2018-02-08T05:20:31.295Z,1009.17
2018-02-08T05:21:31.339Z,1009.17
2018-02-08T05:22:31.382Z,1009.27
2018-02-08T05:23:31.427Z,1009.21
2018-02-08T05:24:31.472Z,1009.22
2018-02-08T05:25:31.519Z,1009.21
2018-02-08T05:26:31.567Z,1009.21
2018-02-08T05:27:31.609Z,1009.19
2018-02-08T05:28:31.656Z,1009.20
2018-02-08T05:29:31.702Z,1009.21
2018-02-08T05:31:04.963Z,1009.22
2018-02-08T05:31:31.799Z,1009.23
2018-02-08T05:32:31.846Z,1009.16
2018-02-08T05:33:31.894Z,1009.24
2018-02-08T05:34:31.942Z,1009.19
2018-02-08T05:35:31.990Z,1009.16
2018-02-08T05:36:32.039Z,1009.20
2018-02-08T05:37:32.088Z,1009.24
2018-02-08T05:38:32.137Z,1009.22
2018-02-08T05:39:32.187Z,1009.21
2018-02-08T05:40:32.236Z,1009.23
2018-02-08T05:41:32.286Z,1009.21
2018-02-08T05:42:32.335Z,1009.22
2018-02-08T05:43:32.421Z,1009.25
2018-02-08T05:44:32.434Z,1009.27
2018-02-08T05:45:32.483Z,1009.29
2018-02-08T05:46:32.533Z,1009.26
2018-02-08T05:47:32.582Z,1009.28
2018-02-08T05:48:32.632Z,1009.31
2018-02-08T05:49:32.682Z,1009.36
2018-02-08T05:50:32.734Z,1009.35
2018-02-08T05:51:32.783Z,1009.34
2018-02-08T05:52:32.833Z,1009.38
2018-02-08T05:53:32.884Z,1009.39
2018-02-08T05:54:32.933Z,1009.39
2018-02-08T05:55:32.982Z,1009.39
2018-02-08T05:56:33.032Z,1009.39
2018-02-08T05:57:33.082Z,1009.44
2018-02-08T05:58:33.134Z,1009.46
2018-02-08T05:59:33.183Z,1009.45
2018-02-08T06:00:33.234Z,1009.45
2018-02-08T06:01:33.285Z,1009.46
2018-02-08T06:02:33.336Z,1009.43
2018-02-08T06:03:33.387Z,1009.47
2018-02-08T06:04:33.435Z,1009.46
2018-02-08T06:05:33.950Z,1009.48
2018-02-08T06:06:33.559Z,1009.48
2018-02-08T06:07:33.616Z,1009.49
2018-02-08T06:08:33.698Z,1009.53
2018-02-08T06:09:33.685Z,1009.56
2018-02-08T06:10:33.737Z,1009.56
2018-02-08T06:11:33.786Z,1009.59
2018-02-08T06:12:33.871Z,1009.58
2018-02-08T06:13:33.888Z,1009.62
2018-02-08T06:14:33.938Z,1009.64
2018-02-08T06:15:33.986Z,1009.64
2018-02-08T06:16:34.038Z,1009.70
2018-02-08T06:17:34.087Z,1009.66
2018-02-08T06:18:34.138Z,1009.69
2018-02-08T06:19:34.187Z,1009.72
2018-02-08T06:21:07.455Z,1009.71
2018-02-08T06:21:34.290Z,1009.76
2018-02-08T06:22:34.339Z,1009.78
2018-02-08T06:23:34.388Z,1009.79
2018-02-08T06:24:34.439Z,1009.83
2018-02-08T06:25:34.810Z,1009.80
2018-02-08T06:26:34.541Z,1009.81
2018-02-08T06:27:34.590Z,1009.79
2018-02-08T06:28:34.640Z,1009.81
2018-02-08T06:29:34.690Z,1009.88
2018-02-08T06:30:34.750Z,1009.85
2018-02-08T06:31:34.791Z,1009.86
2018-02-08T06:32:34.841Z,1009.88
2018-02-08T06:33:34.891Z,1009.84
2018-02-08T06:34:34.946Z,1009.85
2018-02-08T06:35:34.991Z,1009.87
2018-02-08T06:36:35.041Z,1009.86
2018-02-08T06:37:35.092Z,1009.94
2018-02-08T06:38:35.141Z,1009.89
2018-02-08T06:39:35.191Z,1009.90
2018-02-08T06:41:35.292Z,1009.97
2018-02-08T06:42:35.346Z,1009.94
2018-02-08T06:43:35.391Z,1009.95
2018-02-08T06:44:35.442Z,1009.96
2018-02-08T06:45:35.492Z,1009.99
2018-02-08T06:46:35.543Z,1009.99
2018-02-08T06:47:35.592Z,1009.99
2018-02-08T06:48:35.642Z,1009.98
2018-02-08T06:49:35.783Z,1009.94
2018-02-08T06:51:08.953Z,1010.01
2018-02-08T06:51:35.793Z,1009.98
2018-02-08T06:52:35.854Z,1010.02
2018-02-08T06:53:35.892Z,1010.04
2018-02-08T06:54:35.944Z,1010.01
2018-02-08T06:55:35.993Z,1010.03
2018-02-08T06:56:36.042Z,1010.05
2018-02-08T06:57:36.092Z,1010.04
2018-02-08T06:58:36.632Z,1010.10
2018-02-08T06:59:36.192Z,1010.14
2018-02-08T07:00:36.246Z,1010.11
2018-02-08T07:01:36.294Z,1010.13
2018-02-08T07:02:36.344Z,1010.17
2018-02-08T07:03:36.405Z,1010.11
2018-02-08T07:04:36.443Z,1010.10
2018-02-08T07:05:36.493Z,1010.10
2018-02-08T07:06:36.545Z,1010.22
2018-02-08T07:07:36.594Z,1010.16
2018-02-08T07:08:36.644Z,1010.19
2018-02-08T07:09:36.701Z,1010.14
2018-02-08T07:10:36.744Z,1010.16
2018-02-08T07:11:36.793Z,1010.20
2018-02-08T07:12:36.844Z,1010.22
2018-02-08T07:13:36.895Z,1010.29
2018-02-08T07:14:36.944Z,1010.24
2018-02-08T07:15:36.995Z,1010.28
2018-02-08T07:16:37.047Z,1010.26
2018-02-08T07:17:37.097Z,1010.28
2018-02-08T07:18:37.144Z,1010.27
2018-02-08T07:19:37.194Z,1010.29
2018-02-08T07:20:37.783Z,1010.32
2018-02-08T07:21:37.295Z,1010.30
2018-02-08T07:22:37.345Z,1010.34
2018-02-08T07:23:37.393Z,1010.39
2018-02-08T07:24:37.445Z,1010.38
2018-02-08T07:25:37.494Z,1010.37
2018-02-08T07:26:37.545Z,1010.37
2018-02-08T07:27:37.595Z,1010.36
2018-02-08T07:28:37.646Z,1010.38
2018-02-08T07:29:37.696Z,1010.37
2018-02-08T07:30:37.747Z,1010.40
2018-02-08T07:31:37.794Z,1010.39
2018-02-08T07:32:37.845Z,1010.35
2018-02-08T07:33:37.896Z,1010.33
2018-02-08T07:34:37.945Z,1010.35
2018-02-08T07:35:38.033Z,1010.34
2018-02-08T07:36:38.046Z,1010.35
2018-02-08T07:37:38.096Z,1010.36
2018-02-08T07:38:38.145Z,1010.38
2018-02-08T07:39:38.194Z,1010.41
2018-02-08T07:40:38.245Z,1010.40
2018-02-08T07:41:38.345Z,1010.46
2018-02-08T07:42:38.346Z,1010.47
2018-02-08T07:43:38.396Z,1010.50
2018-02-08T07:44:38.444Z,1010.49
2018-02-08T07:45:38.497Z,1010.49
2018-02-08T07:46:38.546Z,1010.46
2018-02-08T07:47:38.596Z,1010.49
2018-02-08T07:48:38.646Z,1010.47
2018-02-08T07:49:38.696Z,1010.48
2018-02-08T07:50:38.746Z,1010.45
2018-02-08T07:51:38.796Z,1010.49
2018-02-08T07:52:38.845Z,1010.44
2018-02-08T07:53:39.045Z,1010.48
2018-02-08T07:54:38.946Z,1010.47
2018-02-08T07:55:38.995Z,1010.48
2018-02-08T07:56:39.046Z,1010.41
2018-02-08T07:57:39.095Z,1010.46
2018-02-08T07:58:39.147Z,1010.46
2018-02-08T08:00:39.245Z,1010.46
2018-02-08T08:01:39.295Z,1010.42
2018-02-08T08:02:39.350Z,1010.43
2018-02-08T08:03:39.396Z,1010.46
2018-02-08T08:04:39.445Z,1010.50
2018-02-08T08:05:39.496Z,1010.49
2018-02-08T08:06:39.546Z,1010.45
2018-02-08T08:07:39.597Z,1010.48
2018-02-08T08:08:39.647Z,1010.51
2018-02-08T08:09:39.697Z,1010.47
2018-02-08T08:10:39.748Z,1010.50
2018-02-08T08:11:39.796Z,1010.50
2018-02-08T08:12:39.848Z,1010.47
2018-02-08T08:13:39.898Z,1010.47
2018-02-08T08:14:39.949Z,1010.44
2018-02-08T08:15:39.998Z,1010.46
2018-02-08T08:16:40.048Z,1010.49
2018-02-08T08:17:40.103Z,1010.46
2018-02-08T08:18:40.150Z,1010.50
2018-02-08T08:19:40.199Z,1010.48
2018-02-08T08:20:40.249Z,1010.48
2018-02-08T08:21:40.351Z,1010.48
2018-02-08T08:22:40.352Z,1010.53
2018-02-08T08:23:40.401Z,1010.53
2018-02-08T08:24:40.451Z,1010.59
2018-02-08T08:25:40.502Z,1010.56
2018-02-08T08:26:40.553Z,1010.56
2018-02-08T08:27:41.302Z,1010.61
2018-02-08T08:28:40.654Z,1010.59
2018-02-08T08:29:40.705Z,1010.63
2018-02-08T08:30:40.755Z,1010.62
2018-02-08T08:31:40.806Z,1010.60
2018-02-08T08:32:40.857Z,1010.60
2018-02-08T08:33:40.908Z,1010.63
2018-02-08T08:34:40.958Z,1010.61
2018-02-08T08:35:41.009Z,1010.62
2018-02-08T08:36:41.060Z,1010.62
2018-02-08T08:37:41.111Z,1010.62
2018-02-08T08:38:41.161Z,1010.65
2018-02-08T08:40:14.911Z,1010.67
2018-02-08T08:40:41.777Z,1010.65
2018-02-08T08:41:41.313Z,1010.69
2018-02-08T08:42:41.366Z,1010.68
2018-02-08T08:43:41.415Z,1010.68
2018-02-08T08:44:41.467Z,1010.65
2018-02-08T08:45:41.518Z,1010.67
2018-02-08T08:46:42.366Z,1010.71
2018-02-08T08:47:41.626Z,1010.70
2018-02-08T08:48:41.672Z,1010.70
2018-02-08T08:49:41.722Z,1010.66
2018-02-08T08:50:41.773Z,1010.71
2018-02-08T08:51:41.825Z,1010.73
2018-02-08T08:52:41.876Z,1010.72
2018-02-08T08:53:41.932Z,1010.71
2018-02-08T08:54:41.980Z,1010.73
2018-02-08T08:55:42.037Z,1010.77
2018-02-08T08:56:42.081Z,1010.74
2018-02-08T08:57:42.134Z,1010.72
2018-02-08T08:58:42.184Z,1010.72
2018-02-08T08:59:42.235Z,1010.72
2018-02-08T09:00:42.288Z,1010.71
2018-02-08T09:01:42.340Z,1010.75
2018-02-08T09:02:42.391Z,1010.75
2018-02-08T09:03:42.443Z,1010.76
2018-02-08T09:04:42.495Z,1010.75
2018-02-08T09:05:42.548Z,1010.73
2018-02-08T09:06:42.598Z,1010.76
2018-02-08T09:07:42.653Z,1010.77
2018-02-08T09:08:42.783Z,1010.81
2018-02-08T09:09:42.756Z,1010.81
2018-02-08T09:10:42.842Z,1010.81
2018-02-08T09:11:43.290Z,1010.80
2018-02-08T09:12:42.912Z,1010.79
2018-02-08T09:13:42.969Z,1010.81
2018-02-08T09:14:43.342Z,1010.79
2018-02-08T09:15:43.067Z,1010.78
2018-02-08T09:16:43.120Z,1010.79
2018-02-08T09:17:43.174Z,1010.79
2018-02-08T09:18:43.227Z,1010.83
2018-02-08T09:19:43.279Z,1010.80
2018-02-08T09:20:43.331Z,1010.81
2018-02-08T09:21:43.383Z,1010.85
2018-02-08T09:22:43.439Z,1010.84
2018-02-08T09:23:43.489Z,1010.86
2018-02-08T09:24:43.541Z,1010.83
2018-02-08T09:25:43.594Z,1010.86
2018-02-08T09:26:43.649Z,1010.89
2018-02-08T09:27:43.700Z,1010.88
2018-02-08T09:28:44.319Z,1010.88
2018-02-08T09:29:44.588Z,1010.89
2018-02-08T09:30:43.864Z,1010.89
2018-02-08T09:31:44.069Z,1010.90
2018-02-08T09:32:43.965Z,1010.86
2018-02-08T09:33:44.018Z,1010.89
2018-02-08T09:34:44.072Z,1010.89
2018-02-08T09:35:44.123Z,1010.92
2018-02-08T09:36:44.176Z,1010.93
2018-02-08T09:37:44.876Z,1010.93
2018-02-08T09:38:44.856Z,1010.92
2018-02-08T09:39:44.339Z,1010.92
2018-02-08T09:40:44.390Z,1010.92
2018-02-08T09:41:44.442Z,1010.93
2018-02-08T09:42:44.497Z,1010.92
2018-02-08T09:43:44.548Z,1010.94
2018-02-08T09:44:45.139Z,1010.95
2018-02-08T09:45:44.671Z,1010.94
2018-02-08T09:46:44.710Z,1010.96
2018-02-08T09:47:44.763Z,1010.96
2018-02-08T09:48:44.817Z,1010.98
2018-02-08T09:49:44.871Z,1010.97
2018-02-08T09:50:44.925Z,1010.96
2018-02-08T09:51:44.977Z,1011.01
2018-02-08T09:52:45.031Z,1011.00
2018-02-08T09:53:45.086Z,1010.98
2018-02-08T09:55:18.400Z,1010.98
2018-02-08T09:55:45.192Z,1010.98
2018-02-08T09:56:45.404Z,1010.99
2018-02-08T09:57:45.303Z,1010.95
2018-02-08T09:58:45.354Z,1010.96
2018-02-08T09:59:45.408Z,1010.97
2018-02-08T10:00:45.465Z,1011.03
2018-02-08T10:01:45.517Z,1011.01
2018-02-08T10:02:45.570Z,1011.02
2018-02-08T10:03:45.624Z,1011.02
2018-02-08T10:04:45.681Z,1011.08
2018-02-08T10:05:45.733Z,1011.04
2018-02-08T10:06:45.787Z,1011.04
2018-02-08T10:07:45.840Z,1011.03
2018-02-08T10:08:45.911Z,1011.03
2018-02-08T10:09:45.951Z,1011.06
2018-02-08T10:10:46.006Z,1011.09
2018-02-08T10:11:46.058Z,1011.05
2018-02-08T10:12:46.114Z,1011.06
2018-02-08T10:14:19.381Z,1011.07
2018-02-08T10:14:46.225Z,1011.08
2018-02-08T10:15:46.277Z,1011.08
2018-02-08T10:16:46.383Z,1011.10
2018-02-08T10:17:46.388Z,1011.10
2018-02-08T10:18:46.450Z,1011.13
2018-02-08T10:19:46.501Z,1011.15
2018-02-08T10:20:46.554Z,1011.11
2018-02-08T10:21:46.611Z,1011.13
2018-02-08T10:22:46.666Z,1011.15
2018-02-08T10:23:46.720Z,1011.08
2018-02-08T10:24:46.777Z,1011.12
2018-02-08T10:25:46.833Z,1011.12
2018-02-08T10:26:46.890Z,1011.16
2018-02-08T10:27:46.945Z,1011.15
2018-02-08T10:28:47.000Z,1011.17
2018-02-08T10:29:47.057Z,1011.13
2018-02-08T10:30:47.156Z,1011.13
2018-02-08T10:31:47.168Z,1011.13
2018-02-08T10:32:47.224Z,1011.13
2018-02-08T10:33:47.280Z,1011.13
2018-02-08T10:34:47.338Z,1011.11
2018-02-08T10:35:47.392Z,1011.13
2018-02-08T10:36:47.448Z,1011.14
2018-02-08T10:37:47.506Z,1011.07
2018-02-08T10:38:47.560Z,1011.12
2018-02-08T10:39:47.617Z,1011.10
2018-02-08T10:40:47.674Z,1011.11
2018-02-08T10:41:47.737Z,1011.06
2018-02-08T10:42:47.791Z,1011.06
2018-02-08T10:43:47.843Z,1011.07
2018-02-08T10:44:47.901Z,1011.06
2018-02-08T10:45:47.956Z,1011.01
2018-02-08T10:46:48.013Z,1011.02
2018-02-08T10:47:48.067Z,1011.04
2018-02-08T10:48:48.125Z,1011.01
2018-02-08T10:49:48.182Z,1010.99
2018-02-08T10:50:48.237Z,1010.95
2018-02-08T10:51:48.293Z,1011.00
2018-02-08T10:52:48.350Z,1011.01
2018-02-08T10:53:48.407Z,1010.99
2018-02-08T10:54:48.463Z,1011.00
2018-02-08T10:55:48.522Z,1011.01
2018-02-08T10:56:48.578Z,1011.00
2018-02-08T10:57:48.632Z,1011.06
2018-02-08T10:58:48.690Z,1011.02
2018-02-08T10:59:48.744Z,1011.02
2018-02-08T11:00:48.802Z,1011.04
2018-02-08T11:01:48.860Z,1010.99
2018-02-08T11:02:48.915Z,1011.01
2018-02-08T11:03:48.972Z,1011.01
2018-02-08T11:04:49.028Z,1011.04
2018-02-08T11:05:49.084Z,1011.02
2018-02-08T11:06:49.141Z,1011.02
2018-02-08T11:07:49.198Z,1011.02
2018-02-08T11:08:49.254Z,1010.99
2018-02-08T11:09:49.312Z,1011.00
2018-02-08T11:10:49.367Z,1011.02
2018-02-08T11:11:49.423Z,1011.02
2018-02-08T11:12:49.712Z,1011.05
2018-02-08T11:13:49.538Z,1011.07
2018-02-08T11:14:49.595Z,1011.06
2018-02-08T11:15:49.651Z,1011.01
2018-02-08T11:16:50.370Z,1011.05
2018-02-08T11:17:49.764Z,1011.04
2018-02-08T11:18:50.516Z,1010.99
2018-02-08T11:19:49.878Z,1011.00
2018-02-08T11:20:49.933Z,1011.04
2018-02-08T11:21:49.991Z,1011.04
2018-02-08T11:22:50.047Z,1011.00
2018-02-08T11:23:50.105Z,1011.01
2018-02-08T11:24:50.161Z,1010.99
2018-02-08T11:25:50.218Z,1011.01
2018-02-08T11:26:50.275Z,1010.98
2018-02-08T11:27:50.331Z,1011.01
2018-02-08T11:28:50.388Z,1010.98
2018-02-08T11:29:50.444Z,1010.97
2018-02-08T11:30:50.502Z,1010.98
2018-02-08T11:31:50.558Z,1011.01
2018-02-08T11:32:50.616Z,1011.00
2018-02-08T11:33:50.671Z,1011.01
2018-02-08T11:34:50.732Z,1011.04
2018-02-08T11:35:50.788Z,1011.06
2018-02-08T11:36:50.841Z,1011.00
2018-02-08T11:37:50.898Z,1011.00
2018-02-08T11:38:50.959Z,1011.01
2018-02-08T11:39:51.162Z,1011.03
2018-02-08T11:40:51.068Z,1011.05
2018-02-08T11:41:51.125Z,1011.12
2018-02-08T11:42:51.182Z,1011.07
2018-02-08T11:43:51.237Z,1011.15
2018-02-08T11:44:51.301Z,1011.15
2018-02-08T11:45:51.353Z,1011.12
2018-02-08T11:46:51.410Z,1011.05
2018-02-08T11:47:51.472Z,1011.07
2018-02-08T11:48:51.525Z,1011.10
2018-02-08T11:49:51.582Z,1011.23
2018-02-08T11:50:51.638Z,1011.31
2018-02-08T11:51:51.697Z,1011.37
2018-02-08T11:52:51.754Z,1011.30
2018-02-08T11:53:51.812Z,1011.36
2018-02-08T11:54:51.872Z,1011.36
2018-02-08T11:55:51.932Z,1011.33
2018-02-08T11:56:51.987Z,1011.27
2018-02-08T11:57:52.048Z,1011.28
2018-02-08T11:58:52.131Z,1011.30
2018-02-08T11:59:52.183Z,1011.28
2018-02-08T12:00:52.262Z,1011.30
2018-02-08T12:01:52.281Z,1011.35
2018-02-08T12:02:52.339Z,1011.38
2018-02-08T12:03:53.015Z,1011.35
2018-02-08T12:04:52.457Z,1011.42
2018-02-08T12:05:52.516Z,1011.52
2018-02-08T12:06:52.576Z,1011.67
2018-02-08T12:07:52.885Z,1011.75
2018-02-08T12:08:52.692Z,1011.83
2018-02-08T12:09:52.750Z,1011.90
2018-02-08T12:10:52.809Z,1011.72
2018-02-08T12:11:52.870Z,1011.68
2018-02-08T12:12:52.928Z,1011.78
2018-02-08T12:13:52.987Z,1011.79
2018-02-08T12:14:53.047Z,1011.82
2018-02-08T12:15:53.106Z,1011.95
2018-02-08T12:16:53.164Z,1011.83
2018-02-08T12:17:53.225Z,1011.83
2018-02-08T12:18:53.283Z,1012.08
2018-02-08T12:19:53.342Z,1012.09
2018-02-08T12:20:53.401Z,1012.08
2018-02-08T12:21:53.466Z,1012.14
2018-02-08T12:22:53.520Z,1011.97
2018-02-08T12:23:53.580Z,1011.93
2018-02-08T12:24:53.639Z,1012.12
2018-02-08T12:25:53.698Z,1012.22
2018-02-08T12:26:53.758Z,1012.19
2018-02-08T12:27:53.819Z,1012.17
2018-02-08T12:28:53.878Z,1012.20
2018-02-08T12:29:53.938Z,1012.29
2018-02-08T12:30:53.999Z,1012.38
2018-02-08T12:31:54.059Z,1012.20
2018-02-08T12:32:54.121Z,1012.34
2018-02-08T12:33:54.178Z,1012.40
2018-02-08T12:34:54.241Z,1012.30
2018-02-08T12:35:54.298Z,1012.65
2018-02-08T12:36:54.360Z,1012.66
2018-02-08T12:37:54.423Z,1012.61
2018-02-08T12:38:54.480Z,1012.68
2018-02-08T12:39:54.648Z,1012.65
2018-02-08T12:40:54.601Z,1012.67
2018-02-08T12:41:54.663Z,1012.67
2018-02-08T12:42:54.722Z,1012.62
2018-02-08T12:43:54.781Z,1012.63
2018-02-08T12:44:54.842Z,1012.58
2018-02-08T12:45:54.903Z,1011.98
2018-02-08T12:46:54.963Z,1011.31
2018-02-08T12:47:55.035Z,1010.91
2018-02-08T12:48:55.083Z,1011.28
2018-02-08T12:49:55.143Z,1011.46
2018-02-08T12:50:55.204Z,1011.45
2018-02-08T12:51:55.832Z,1011.38
2018-02-08T12:52:55.324Z,1011.27
2018-02-08T12:53:55.384Z,1011.30
2018-02-08T12:54:55.446Z,1011.49
2018-02-08T12:55:55.503Z,1011.68
2018-02-08T12:56:55.563Z,1011.73
2018-02-08T12:57:55.624Z,1011.93
2018-02-08T12:58:55.683Z,1011.89
2018-02-08T12:59:55.744Z,1011.91
2018-02-08T13:00:56.401Z,1011.89
2018-02-08T13:01:55.862Z,1011.88
2018-02-08T13:02:55.921Z,1011.87
2018-02-08T13:03:55.981Z,1011.89
2018-02-08T13:04:56.039Z,1011.94
2018-02-08T13:05:56.131Z,1011.83
2018-02-08T13:06:56.198Z,1011.84
2018-02-08T13:07:56.238Z,1011.78
2018-02-08T13:08:56.863Z,1011.76
2018-02-08T13:09:56.405Z,1011.72
2018-02-08T13:10:56.400Z,1011.65
2018-02-08T13:11:56.458Z,1011.65
2018-02-08T13:12:56.518Z,1011.65
2018-02-08T13:13:56.579Z,1011.73
2018-02-08T13:14:56.640Z,1011.64
2018-02-08T13:15:56.698Z,1011.55
2018-02-08T13:16:56.757Z,1011.30
2018-02-08T13:17:56.818Z,1011.43
2018-02-08T13:18:56.902Z,1011.39
2018-02-08T13:19:56.938Z,1011.23
2018-02-08T13:20:56.998Z,1011.13
2018-02-08T13:21:57.059Z,1011.16
2018-02-08T13:22:57.118Z,1011.16
2018-02-08T13:23:57.179Z,1011.22
2018-02-08T13:24:57.238Z,1011.09
2018-02-08T13:25:57.299Z,1011.03
2018-02-08T13:26:57.360Z,1011.07
2018-02-08T13:27:57.418Z,1011.14
2018-02-08T13:28:57.479Z,1011.08
2018-02-08T13:29:57.540Z,1010.99
2018-02-08T13:30:57.602Z,1010.92
2018-02-08T13:31:57.660Z,1010.89
2018-02-08T13:33:01.484Z,1010.88
2018-02-08T13:33:57.781Z,1010.87
2018-02-08T13:34:57.843Z,1010.86
2018-02-08T13:35:57.903Z,1010.82
2018-02-08T13:36:58.547Z,1010.85
2018-02-08T13:37:58.449Z,1010.81
2018-02-08T13:38:58.456Z,1010.77
2018-02-08T13:39:58.185Z,1010.81
2018-02-08T13:40:58.257Z,1010.73
2018-02-08T13:41:58.265Z,1010.73
2018-02-08T13:42:58.329Z,1010.69
2018-02-08T13:43:59.570Z,1010.74
2018-02-08T13:44:58.828Z,1010.73
2018-02-08T13:45:58.525Z,1010.78
2018-02-08T13:46:58.566Z,1010.84
2018-02-08T13:47:59.091Z,1010.76
2018-02-08T13:48:58.684Z,1010.73
2018-02-08T13:49:58.746Z,1010.74
2018-02-08T13:50:58.807Z,1010.73
2018-02-08T13:51:58.867Z,1010.74
2018-02-08T13:52:58.926Z,1010.75
2018-02-08T13:53:58.988Z,1010.70
2018-02-08T13:54:59.051Z,1010.69
2018-02-08T13:55:59.109Z,1010.60
2018-02-08T13:56:59.170Z,1010.55
2018-02-08T13:57:59.230Z,1010.52
2018-02-08T13:58:59.293Z,1010.42
2018-02-08T13:59:59.352Z,1010.46
2018-02-08T14:00:59.413Z,1010.39
2018-02-08T14:01:59.475Z,1010.36
2018-02-08T14:02:59.538Z,1010.28
2018-02-08T14:03:59.595Z,1010.26
2018-02-08T14:04:59.657Z,1010.24
2018-02-08T14:05:59.718Z,1010.20
2018-02-08T14:06:59.778Z,1010.18
2018-02-08T14:07:59.840Z,1010.13
2018-02-08T14:08:59.900Z,1010.15
2018-02-08T14:09:59.961Z,1010.13
2018-02-08T14:11:00.023Z,1010.11
2018-02-08T14:12:00.081Z,1010.12
2018-02-08T14:13:00.141Z,1010.15
2018-02-08T14:14:00.202Z,1010.17
2018-02-08T14:15:00.262Z,1010.13
2018-02-08T14:16:00.321Z,1010.10
2018-02-08T14:17:00.382Z,1010.08
2018-02-08T14:18:00.444Z,1010.08
2018-02-08T14:19:00.500Z,1010.09
2018-02-08T14:20:01.154Z,1010.06
2018-02-08T14:21:00.620Z,1010.05
2018-02-08T14:22:00.722Z,1010.09
2018-02-08T14:23:01.416Z,1010.07
2018-02-08T14:24:00.796Z,1010.05
2018-02-08T14:25:00.856Z,1010.07
2018-02-08T14:26:01.594Z,1010.02
2018-02-08T14:27:00.977Z,1010.09
2018-02-08T14:28:01.034Z,1010.15
2018-02-08T14:29:01.614Z,1010.17
2018-02-08T14:30:01.152Z,1010.22
2018-02-08T14:31:01.213Z,1010.23
2018-02-08T14:32:01.270Z,1010.18
2018-02-08T14:33:01.328Z,1010.20
2018-02-08T14:34:01.392Z,1010.16
2018-02-08T14:35:01.446Z,1010.16
2018-02-08T14:36:02.179Z,1010.10
2018-02-08T14:37:01.564Z,1010.06
2018-02-08T14:38:01.631Z,1009.99
2018-02-08T14:39:01.685Z,1009.98
2018-02-08T14:40:01.744Z,1009.94
2018-02-08T14:41:01.801Z,1009.90
2018-02-08T14:42:01.865Z,1009.91
2018-02-08T14:43:01.921Z,1009.91
2018-02-08T14:44:01.979Z,1009.85
2018-02-08T14:45:02.040Z,1009.87
2018-02-08T14:46:02.102Z,1009.84
2018-02-08T14:47:02.161Z,1009.78
2018-02-08T14:48:02.218Z,1009.77
2018-02-08T14:49:02.279Z,1009.79
2018-02-08T14:50:02.338Z,1009.76
2018-02-08T14:51:02.398Z,1009.75
2018-02-08T14:52:02.458Z,1009.71
2018-02-08T14:53:02.516Z,1009.72
2018-02-08T14:54:02.577Z,1009.67
2018-02-08T14:55:02.638Z,1009.67
2018-02-08T14:56:02.698Z,1009.64
2018-02-08T14:57:02.756Z,1009.62
2018-02-08T14:58:02.816Z,1009.62
2018-02-08T14:59:02.874Z,1009.60
2018-02-08T15:00:02.933Z,1009.64
2018-02-08T15:01:02.991Z,1009.59
2018-02-08T15:02:03.050Z,1009.59
2018-02-08T15:03:03.700Z,1009.60
2018-02-08T15:04:03.168Z,1009.61
2018-02-08T15:05:03.273Z,1009.61
2018-02-08T15:06:03.285Z,1009.58
2018-02-08T15:07:03.344Z,1009.59
2018-02-08T15:08:03.403Z,1009.59
2018-02-08T15:09:03.460Z,1009.57
2018-02-08T15:10:03.520Z,1009.53
2018-02-08T15:11:03.577Z,1009.59
2018-02-08T15:12:03.635Z,1009.58
2018-02-08T15:13:03.693Z,1009.57
2018-02-08T15:14:03.750Z,1009.56
2018-02-08T15:15:03.809Z,1009.55
2018-02-08T15:16:03.866Z,1009.56
2018-02-08T15:17:03.924Z,1009.63
2018-02-08T15:18:03.981Z,1009.62
2018-02-08T15:19:04.091Z,1009.60
2018-02-08T15:20:04.095Z,1009.55
2018-02-08T15:21:04.154Z,1009.54
2018-02-08T15:22:04.210Z,1009.54
2018-02-08T15:23:04.268Z,1009.53
2018-02-08T15:24:04.323Z,1009.53
2018-02-08T15:25:04.380Z,1009.56
2018-02-08T15:26:04.438Z,1009.52
2018-02-08T15:27:05.237Z,1009.57
2018-02-08T15:28:05.231Z,1009.59
2018-02-08T15:29:05.384Z,1009.60
2018-02-08T15:30:04.665Z,1009.58
2018-02-08T15:31:04.721Z,1009.64
2018-02-08T15:32:04.777Z,1009.62
2018-02-08T15:33:04.835Z,1009.63
2018-02-08T15:34:04.890Z,1009.62
2018-02-08T15:35:04.946Z,1009.60
2018-02-08T15:36:05.005Z,1009.63
2018-02-08T15:37:05.059Z,1009.60
2018-02-08T15:38:05.814Z,1009.60
2018-02-08T15:39:05.983Z,1009.59
2018-02-08T15:40:05.225Z,1009.57
2018-02-08T15:41:05.281Z,1009.55
2018-02-08T15:42:05.337Z,1009.59
2018-02-08T15:43:05.393Z,1009.55
2018-02-08T15:44:05.447Z,1009.58
2018-02-08T15:45:05.755Z,1009.54
2018-02-08T15:46:05.570Z,1009.53
2018-02-08T15:47:05.616Z,1009.51
2018-02-08T15:48:05.671Z,1009.55
2018-02-08T15:49:05.727Z,1009.54
2018-02-08T15:50:05.782Z,1009.54
2018-02-08T15:51:05.838Z,1009.58
2018-02-08T15:52:05.895Z,1009.52
2018-02-08T15:53:05.951Z,1009.56
2018-02-08T15:54:06.004Z,1009.53
2018-02-08T15:55:06.059Z,1009.55
2018-02-08T15:56:06.113Z,1009.55
2018-02-08T15:57:06.169Z,1009.58
2018-02-08T15:58:06.224Z,1009.59
2018-02-08T15:59:06.279Z,1009.59
2018-02-08T16:00:06.334Z,1009.58
2018-02-08T16:01:06.389Z,1009.59
2018-02-08T16:02:06.444Z,1009.57
2018-02-08T16:03:06.498Z,1009.54
2018-02-08T16:04:07.109Z,1009.52
2018-02-08T16:05:06.610Z,1009.49
2018-02-08T16:06:06.663Z,1009.49
2018-02-08T16:07:06.970Z,1009.46
2018-02-08T16:08:06.773Z,1009.46
2018-02-08T16:09:06.827Z,1009.47
2018-02-08T16:10:06.883Z,1009.43
2018-02-08T16:11:06.938Z,1009.48
2018-02-08T16:12:06.991Z,1009.42
2018-02-08T16:13:07.048Z,1009.44
2018-02-08T16:14:07.100Z,1009.42
2018-02-08T16:15:07.155Z,1009.40
2018-02-08T16:16:07.518Z,1009.43
2018-02-08T16:17:07.262Z,1009.42
2018-02-08T16:18:07.317Z,1009.43
2018-02-08T16:19:07.373Z,1009.40
2018-02-08T16:20:07.426Z,1009.36
2018-02-08T16:21:07.481Z,1009.36
2018-02-08T16:22:07.535Z,1009.35
2018-02-08T16:23:07.588Z,1009.28
2018-02-08T16:24:07.642Z,1009.31
2018-02-08T16:25:07.695Z,1009.32
2018-02-08T16:26:07.750Z,1009.30
2018-02-08T16:27:07.804Z,1009.33
2018-02-08T16:28:07.857Z,1009.30
2018-02-08T16:29:07.914Z,1009.30
2018-02-08T16:30:08.028Z,1009.32
2018-02-08T16:31:08.020Z,1009.29
2018-02-08T16:32:08.073Z,1009.34
2018-02-08T16:33:08.130Z,1009.32
2018-02-08T16:34:08.179Z,1009.33
2018-02-08T16:35:08.234Z,1009.35
2018-02-08T16:36:08.288Z,1009.32
2018-02-08T16:37:08.341Z,1009.30
2018-02-08T16:38:08.396Z,1009.33
2018-02-08T16:39:08.449Z,1009.32
2018-02-08T16:40:08.501Z,1009.30
2018-02-08T16:41:08.555Z,1009.32
2018-02-08T16:42:08.609Z,1009.32
2018-02-08T16:43:08.663Z,1009.31
2018-02-08T16:44:08.722Z,1009.32
2018-02-08T16:45:08.767Z,1009.32
2018-02-08T16:46:08.821Z,1009.38
2018-02-08T16:47:08.876Z,1009.37
2018-02-08T16:48:09.076Z,1009.40
2018-02-08T16:49:08.981Z,1009.38
2018-02-08T16:50:09.033Z,1009.40
2018-02-08T16:51:09.086Z,1009.41
2018-02-08T16:52:09.141Z,1009.40
2018-02-08T16:53:09.245Z,1009.44
2018-02-08T16:54:09.565Z,1009.41
2018-02-08T16:55:09.300Z,1009.38
2018-02-08T16:56:09.352Z,1009.43
2018-02-08T16:57:09.444Z,1009.45
2018-02-08T16:58:09.460Z,1009.44
2018-02-08T16:59:09.512Z,1009.44
2018-02-08T17:00:09.564Z,1009.42
2018-02-08T17:01:09.617Z,1009.41
2018-02-08T17:02:09.669Z,1009.46
2018-02-08T17:03:09.721Z,1009.40
2018-02-08T17:04:09.774Z,1009.41
2018-02-08T17:05:09.827Z,1009.43
2018-02-08T17:06:09.880Z,1009.45
2018-02-08T17:07:09.934Z,1009.44
2018-02-08T17:08:09.986Z,1009.48
2018-02-08T17:09:10.039Z,1009.45
2018-02-08T17:10:10.092Z,1009.47
2018-02-08T17:11:10.144Z,1009.49
2018-02-08T17:12:10.197Z,1009.47
2018-02-08T17:13:10.249Z,1009.51
2018-02-08T17:14:10.301Z,1009.47
2018-02-08T17:15:10.356Z,1009.48
2018-02-08T17:16:10.407Z,1009.54
2018-02-08T17:17:10.459Z,1009.44
2018-02-08T17:18:10.512Z,1009.50
2018-02-08T17:19:10.565Z,1009.54
2018-02-08T17:20:10.619Z,1009.54
2018-02-08T17:21:10.870Z,1009.53